createdAt,value
2023-02-17T00:01:36.984Z,8.89
2023-02-17T00:04:39.151Z,8.83
2023-02-17T00:07:40.671Z,8.91
2023-02-17T00:14:03.441Z,8.95
2023-02-17T00:17:06.279Z,8.82
2023-02-17T00:20:08.226Z,8.82
2023-02-17T00:23:10.386Z,8.76
2023-02-17T00:26:11.995Z,8.78
2023-02-17T00:29:14.483Z,8.70
2023-02-17T00:32:16.469Z,8.74
2023-02-17T00:35:18.771Z,8.54
2023-02-17T00:38:20.061Z,8.67
2023-02-17T00:41:23.022Z,8.83
2023-02-17T00:44:25.005Z,8.78
2023-02-17T00:47:27.862Z,8.69
2023-02-17T00:50:29.266Z,8.68
2023-02-17T00:53:31.478Z,8.67
2023-02-17T00:56:32.757Z,8.76
2023-02-17T00:59:34.925Z,8.73
2023-02-17T01:02:37.818Z,8.75
2023-02-17T01:05:42.161Z,8.68
2023-02-17T01:08:43.418Z,8.71
2023-02-17T01:11:44.811Z,8.71
2023-02-17T01:14:46.200Z,8.64
2023-02-17T01:17:49.080Z,8.72
2023-02-17T01:20:50.687Z,8.74
2023-02-17T01:23:54.592Z,8.77
2023-02-17T01:26:56.853Z,8.73
2023-02-17T01:29:58.173Z,8.78
2023-02-17T01:33:01.140Z,8.70
2023-02-17T01:36:02.921Z,8.82
2023-02-17T01:39:05.204Z,8.88
2023-02-17T01:42:07.423Z,8.90
2023-02-17T01:45:36.518Z,8.97
2023-02-17T01:48:42.527Z,8.90
2023-02-17T01:51:48.785Z,8.85
2023-02-17T01:54:55.013Z,9.00
2023-02-17T01:57:58.320Z,8.78
2023-02-17T02:01:02.556Z,8.63
2023-02-17T02:04:06.598Z,8.63
2023-02-17T02:07:16.214Z,8.70
2023-02-17T02:10:19.481Z,8.65
2023-02-17T02:13:21.177Z,8.53
2023-02-17T02:16:30.765Z,8.63
2023-02-17T02:19:50.527Z,8.63
2023-02-17T02:23:29.999Z,8.62
2023-02-17T02:27:19.555Z,8.54
2023-02-17T02:30:47.365Z,8.38
2023-02-17T02:33:52.051Z,8.34
2023-02-17T02:36:58.973Z,8.54
2023-02-17T02:40:03.237Z,8.34
2023-02-17T02:43:06.076Z,8.40
2023-02-17T02:46:07.732Z,8.49
2023-02-17T02:49:11.623Z,8.54
2023-02-17T02:52:23.329Z,8.44
2023-02-17T02:55:41.895Z,8.57
2023-02-17T02:58:50.647Z,8.57
2023-02-17T03:02:06.011Z,8.57
2023-02-17T03:05:16.018Z,8.63
2023-02-17T03:08:21.999Z,8.51
2023-02-17T03:11:32.557Z,8.43
2023-02-17T03:14:38.283Z,8.54
2023-02-17T03:17:40.474Z,8.48
2023-02-17T03:20:48.516Z,8.37
2023-02-17T03:23:49.811Z,8.33
2023-02-17T03:26:52.401Z,8.36
2023-02-17T03:29:54.005Z,8.38
2023-02-17T03:32:56.666Z,8.43
2023-02-17T03:35:58.596Z,8.47
2023-02-17T03:39:01.197Z,8.46
2023-02-17T03:42:03.081Z,8.33
2023-02-17T03:45:04.855Z,8.35
2023-02-17T03:48:06.173Z,8.28
2023-02-17T03:51:14.586Z,8.40
2023-02-17T03:54:15.878Z,8.31
2023-02-17T03:57:18.418Z,8.33
2023-02-17T04:00:20.995Z,8.38
2023-02-17T04:03:23.600Z,8.40
2023-02-17T04:06:26.838Z,8.44
2023-02-17T04:09:29.470Z,8.41
2023-02-17T04:12:30.778Z,8.30
2023-02-17T04:15:32.138Z,8.39
2023-02-17T04:18:34.773Z,8.41
2023-02-17T04:21:36.772Z,8.35
2023-02-17T04:24:38.321Z,8.34
2023-02-17T04:27:39.585Z,8.43
2023-02-17T04:30:41.046Z,8.40
2023-02-17T04:33:42.329Z,8.33
2023-02-17T04:36:45.798Z,8.37
2023-02-17T04:39:47.164Z,8.34
2023-02-17T04:42:49.654Z,8.39
2023-02-17T04:45:51.405Z,8.39
2023-02-17T04:48:54.019Z,8.40
2023-02-17T04:51:56.016Z,8.42
2023-02-17T04:54:57.351Z,8.41
2023-02-17T04:57:58.774Z,8.41
2023-02-17T05:01:01.530Z,8.40
2023-02-17T05:04:03.018Z,8.46
2023-02-17T05:07:05.410Z,8.52
2023-02-17T05:10:07.504Z,8.54
2023-02-17T05:13:10.226Z,8.44
2023-02-17T05:16:11.568Z,8.46
2023-02-17T05:19:14.032Z,8.46
2023-02-17T05:22:16.028Z,8.49
2023-02-17T05:25:19.062Z,8.46
2023-02-17T05:28:20.320Z,8.50
2023-02-17T05:31:21.753Z,8.49
2023-02-17T05:34:23.068Z,8.46
2023-02-17T05:37:26.081Z,8.49
2023-02-17T05:40:27.382Z,8.53
2023-02-17T05:46:48.356Z,8.52
2023-02-17T05:49:50.822Z,8.58
2023-02-17T05:52:52.823Z,8.53
2023-02-17T05:55:54.217Z,8.52
2023-02-17T05:58:55.822Z,8.51
2023-02-17T06:01:58.233Z,8.49
2023-02-17T06:04:59.721Z,8.49
2023-02-17T06:08:02.897Z,8.56
2023-02-17T06:11:05.069Z,8.75
2023-02-17T06:14:07.580Z,8.67
2023-02-17T06:17:08.954Z,8.66
2023-02-17T06:20:12.327Z,8.65
2023-02-17T06:23:15.474Z,8.67
2023-02-17T06:26:18.242Z,8.69
2023-02-17T06:29:19.666Z,8.61
2023-02-17T06:32:21.074Z,8.71
2023-02-17T06:35:23.479Z,8.74
2023-02-17T06:38:25.609Z,8.65
2023-02-17T06:41:28.065Z,8.65
2023-02-17T06:44:30.403Z,8.68
2023-02-17T06:47:32.206Z,8.75
2023-02-17T06:50:34.269Z,8.74
2023-02-17T06:53:36.297Z,8.82
2023-02-17T06:56:37.620Z,8.78
2023-02-17T07:02:59.846Z,8.97
2023-02-17T07:06:01.212Z,8.93
2023-02-17T07:09:04.890Z,8.99
2023-02-17T07:12:07.846Z,8.94
2023-02-17T07:15:12.363Z,9.02
2023-02-17T07:21:34.481Z,9.02
2023-02-17T07:24:36.411Z,9.02
2023-02-17T07:27:38.060Z,8.97
2023-02-17T07:30:40.671Z,9.11
2023-02-17T07:33:43.007Z,9.07
2023-02-17T07:40:07.779Z,9.33
2023-02-17T07:43:09.118Z,9.22
2023-02-17T07:46:11.587Z,9.22
2023-02-17T07:49:15.145Z,9.29
2023-02-17T07:55:18.351Z,9.44
2023-02-17T07:58:19.619Z,9.51
2023-02-17T08:01:22.502Z,9.47
2023-02-17T08:04:23.844Z,9.48
2023-02-17T08:07:25.278Z,9.46
2023-02-17T08:10:46.501Z,9.57
2023-02-17T08:13:47.795Z,9.56
2023-02-17T08:16:49.175Z,9.58
2023-02-17T08:19:50.480Z,9.63
2023-02-17T08:22:51.800Z,9.64
2023-02-17T08:25:58.306Z,9.69
2023-02-17T08:29:01.249Z,9.71
2023-02-17T08:32:03.174Z,9.63
2023-02-17T08:35:05.876Z,9.78
2023-02-17T08:38:07.145Z,9.70
2023-02-17T08:41:13.639Z,9.72
2023-02-17T08:44:18.166Z,9.68
2023-02-17T08:47:19.467Z,9.79
2023-02-17T08:50:21.875Z,9.77
2023-02-17T08:53:23.179Z,9.80
2023-02-17T08:56:26.628Z,10.03
2023-02-17T08:59:27.887Z,10.06
2023-02-17T09:02:30.498Z,10.07
2023-02-17T09:05:33.600Z,10.03
2023-02-17T09:08:34.936Z,9.97
2023-02-17T09:11:38.727Z,9.99
2023-02-17T09:14:40.125Z,9.91
2023-02-17T09:17:41.496Z,10.02
2023-02-17T09:20:43.910Z,10.04
2023-02-17T09:23:45.566Z,10.13
2023-02-17T09:26:48.679Z,10.03
2023-02-17T09:29:50.018Z,9.95
2023-02-17T09:32:52.757Z,10.01
2023-02-17T09:35:54.061Z,10.16
2023-02-17T09:38:56.066Z,10.16
2023-02-17T09:41:59.085Z,10.08
2023-02-17T09:45:04.536Z,10.10
2023-02-17T09:48:08.683Z,10.19
2023-02-17T09:51:18.694Z,10.12
2023-02-17T09:54:26.483Z,10.05
2023-02-17T09:57:34.144Z,10.14
2023-02-17T10:00:40.692Z,10.03
2023-02-17T10:03:46.308Z,10.04
2023-02-17T10:06:51.867Z,10.03
2023-02-17T10:09:59.601Z,10.20
2023-02-17T10:13:03.990Z,10.33
2023-02-17T10:16:11.220Z,10.13
2023-02-17T10:19:16.942Z,10.12
2023-02-17T10:22:20.923Z,10.08
2023-02-17T10:25:44.260Z,10.15
2023-02-17T10:28:52.848Z,10.18
2023-02-17T10:32:10.269Z,10.36
2023-02-17T10:35:17.024Z,10.47
2023-02-17T10:38:28.311Z,10.33
2023-02-17T10:41:35.845Z,10.39
2023-02-17T10:44:38.454Z,10.48
2023-02-17T10:47:40.444Z,10.68
2023-02-17T10:50:43.556Z,10.63
2023-02-17T10:53:48.272Z,10.51
2023-02-17T10:56:55.252Z,10.49
2023-02-17T10:59:57.685Z,10.41
2023-02-17T11:03:00.192Z,10.51
2023-02-17T11:06:04.079Z,10.45
2023-02-17T11:09:17.439Z,10.56
2023-02-17T11:12:22.352Z,10.68
2023-02-17T11:15:28.508Z,10.66
2023-02-17T11:18:34.311Z,10.71
2023-02-17T11:21:42.672Z,10.81
2023-02-17T11:24:44.114Z,10.76
2023-02-17T11:27:50.380Z,10.76
2023-02-17T11:30:56.173Z,10.72
2023-02-17T11:37:21.094Z,10.83
2023-02-17T11:40:27.334Z,10.80
2023-02-17T11:43:29.915Z,10.88
2023-02-17T11:46:33.517Z,10.96
2023-02-17T11:49:55.115Z,11.05
2023-02-17T11:56:34.040Z,10.95
2023-02-17T12:03:22.329Z,11.09
2023-02-17T12:09:39.943Z,11.19
2023-02-17T12:12:59.034Z,11.19
2023-02-17T12:16:16.319Z,11.35
2023-02-17T12:19:32.735Z,11.41
2023-02-17T12:22:43.340Z,11.52
2023-02-17T12:25:50.902Z,11.50
2023-02-17T12:29:17.713Z,11.54
2023-02-17T12:32:32.333Z,11.52
2023-02-17T12:35:43.580Z,11.74
2023-02-17T12:38:50.559Z,11.86
2023-02-17T12:41:59.837Z,11.90
2023-02-17T12:45:06.389Z,12.01
2023-02-17T12:48:13.830Z,12.05
2023-02-17T12:51:23.231Z,12.16
2023-02-17T12:54:32.320Z,12.07
2023-02-17T12:57:41.661Z,12.27
2023-02-17T13:00:46.152Z,12.25
2023-02-17T13:03:48.068Z,12.27
2023-02-17T13:06:54.619Z,12.16
2023-02-17T13:09:56.864Z,12.13
2023-02-17T13:13:05.023Z,12.22
2023-02-17T13:16:11.133Z,12.44
2023-02-17T13:19:14.351Z,12.39
2023-02-17T13:22:23.130Z,12.47
2023-02-17T13:25:29.536Z,12.48
2023-02-17T13:28:35.826Z,12.48
2023-02-17T13:31:50.331Z,12.50
2023-02-17T13:34:59.887Z,12.53
2023-02-17T13:38:02.444Z,12.52
2023-02-17T13:41:07.556Z,12.61
2023-02-17T13:44:30.889Z,12.60
2023-02-17T13:47:37.864Z,12.74
2023-02-17T13:50:45.023Z,12.78
2023-02-17T13:53:49.856Z,12.79
2023-02-17T13:56:53.655Z,13.06
2023-02-17T14:00:10.257Z,13.10
2023-02-17T14:03:20.019Z,12.97
2023-02-17T14:06:27.788Z,13.04
2023-02-17T14:09:31.516Z,13.05
2023-02-17T14:12:32.906Z,13.07
2023-02-17T14:15:34.912Z,12.96
2023-02-17T14:18:38.398Z,13.00
2023-02-17T14:21:41.996Z,12.69
2023-02-17T14:24:43.316Z,12.74
2023-02-17T14:27:47.656Z,12.75
2023-02-17T14:30:50.683Z,12.69
2023-02-17T14:33:54.162Z,12.70
2023-02-17T14:37:07.336Z,12.70
2023-02-17T14:40:17.025Z,12.83
2023-02-17T14:43:18.709Z,12.85
2023-02-17T14:46:20.880Z,12.81
2023-02-17T14:49:23.184Z,12.44
2023-02-17T14:52:25.160Z,12.32
2023-02-17T14:55:33.088Z,12.30
2023-02-17T14:58:35.504Z,12.41
2023-02-17T15:04:58.066Z,12.18
2023-02-17T15:08:02.187Z,12.23
2023-02-17T15:11:03.628Z,12.33
2023-02-17T15:14:07.315Z,12.24
2023-02-17T15:17:10.328Z,12.45
2023-02-17T15:20:13.023Z,12.15
2023-02-17T15:23:16.542Z,11.95
2023-02-17T15:26:17.799Z,12.25
2023-02-17T15:29:21.508Z,12.28
2023-02-17T15:32:23.934Z,12.06
2023-02-17T15:35:27.395Z,12.00
2023-02-17T15:38:29.727Z,12.10
2023-02-17T15:41:31.690Z,12.01
2023-02-17T15:44:40.562Z,12.01
2023-02-17T15:47:42.623Z,11.96
2023-02-17T15:50:44.941Z,12.13
2023-02-17T15:53:46.991Z,12.26
2023-02-17T15:56:50.078Z,12.27
2023-02-17T15:59:55.352Z,12.22
2023-02-17T16:02:57.477Z,12.42
2023-02-17T16:05:59.248Z,12.36
2023-02-17T16:09:00.654Z,12.24
2023-02-17T16:12:02.152Z,12.40
2023-02-17T16:15:04.205Z,12.41
2023-02-17T16:18:06.224Z,12.45
2023-02-17T16:21:09.530Z,12.39
2023-02-17T16:24:10.951Z,12.38
2023-02-17T16:27:15.416Z,12.57
2023-02-17T16:30:19.664Z,12.54
2023-02-17T16:33:21.631Z,12.45
2023-02-17T16:36:23.005Z,12.42
2023-02-17T16:39:24.310Z,12.43
2023-02-17T16:42:25.756Z,12.44
2023-02-17T16:45:29.981Z,12.56
2023-02-17T16:48:35.137Z,12.40
2023-02-17T16:51:36.992Z,12.41
2023-02-17T16:54:39.580Z,12.58
2023-02-17T16:57:42.530Z,12.50
2023-02-17T17:00:44.904Z,12.37
2023-02-17T17:03:46.919Z,12.33
2023-02-17T17:06:51.211Z,12.37
2023-02-17T17:10:14.648Z,12.43
2023-02-17T17:13:13.848Z,12.49
2023-02-17T17:16:19.313Z,12.31
2023-02-17T17:19:21.667Z,12.55
2023-02-17T17:22:23.657Z,12.39
2023-02-17T17:25:25.081Z,12.47
2023-02-17T17:28:26.364Z,12.56
2023-02-17T17:31:28.395Z,12.49
2023-02-17T17:34:30.398Z,12.60
2023-02-17T17:37:31.702Z,12.42
2023-02-17T17:40:47.324Z,12.34
2023-02-17T17:43:50.222Z,12.38
2023-02-17T17:46:51.574Z,12.36
2023-02-17T17:49:53.485Z,12.40
2023-02-17T17:52:54.820Z,12.43
2023-02-17T17:55:56.103Z,12.27
2023-02-17T17:58:59.249Z,12.09
2023-02-17T18:02:00.744Z,12.19
2023-02-17T18:05:03.189Z,11.85
2023-02-17T18:08:05.444Z,11.83
2023-02-17T18:11:08.027Z,11.73
2023-02-17T18:14:13.824Z,11.68
2023-02-17T18:17:17.377Z,11.75
2023-02-17T18:20:19.599Z,11.58
2023-02-17T18:23:20.909Z,11.57
2023-02-17T18:26:22.331Z,11.70
2023-02-17T18:29:23.851Z,11.58
2023-02-17T18:32:25.203Z,11.68
2023-02-17T18:35:27.482Z,11.66
2023-02-17T18:38:30.189Z,11.67
2023-02-17T18:41:34.464Z,11.62
2023-02-17T18:44:37.059Z,11.41
2023-02-17T18:47:38.367Z,11.41
2023-02-17T18:50:41.598Z,11.30
2023-02-17T18:53:43.037Z,11.14
2023-02-17T18:56:45.451Z,11.11
2023-02-17T18:59:46.905Z,11.26
2023-02-17T19:02:48.340Z,11.17
2023-02-17T19:05:51.501Z,11.02
2023-02-17T19:08:53.309Z,11.00
2023-02-17T19:11:55.028Z,10.95
2023-02-17T19:14:56.461Z,10.82
2023-02-17T19:17:58.047Z,10.80
2023-02-17T19:21:00.071Z,10.73
2023-02-17T19:24:01.336Z,10.75
2023-02-17T19:27:02.962Z,10.74
2023-02-17T19:30:05.404Z,10.53
2023-02-17T19:33:06.709Z,10.40
2023-02-17T19:36:10.989Z,10.49
2023-02-17T19:39:12.277Z,10.40
2023-02-17T19:42:13.571Z,10.26
2023-02-17T19:45:14.965Z,10.29
2023-02-17T19:48:16.226Z,10.24
2023-02-17T19:51:19.055Z,10.02
2023-02-17T19:54:21.372Z,9.90
2023-02-17T19:57:22.773Z,9.88
2023-02-17T20:00:24.577Z,9.97
2023-02-17T20:03:25.876Z,9.78
2023-02-17T20:06:29.841Z,9.79
2023-02-17T20:09:32.902Z,9.74
2023-02-17T20:12:34.453Z,9.68
2023-02-17T20:15:36.197Z,9.64
2023-02-17T20:18:39.018Z,9.65
2023-02-17T20:21:45.262Z,9.48
2023-02-17T20:24:46.631Z,9.38
2023-02-17T20:27:49.302Z,9.38
2023-02-17T20:30:51.246Z,9.50
2023-02-17T20:33:52.941Z,9.41
2023-02-17T20:36:55.462Z,9.43
2023-02-17T20:39:56.890Z,9.42
2023-02-17T20:43:00.499Z,9.16
2023-02-17T20:46:03.201Z,9.17
2023-02-17T20:49:04.526Z,9.09
2023-02-17T20:52:06.486Z,9.33
2023-02-17T20:55:08.244Z,9.10
2023-02-17T20:58:10.277Z,9.05
2023-02-17T21:01:11.950Z,9.30
2023-02-17T21:04:14.459Z,9.20
2023-02-17T21:07:17.366Z,8.99
2023-02-17T21:10:21.179Z,9.18
2023-02-17T21:13:23.732Z,8.99
2023-02-17T21:16:27.475Z,9.12
2023-02-17T21:22:50.598Z,8.87
2023-02-17T21:25:52.820Z,8.97
2023-02-17T21:28:54.634Z,8.77
2023-02-17T21:35:15.323Z,8.75
2023-02-17T21:41:41.273Z,8.57
2023-02-17T21:44:52.298Z,8.70
2023-02-17T21:47:53.887Z,8.52
2023-02-17T21:51:04.939Z,8.49
2023-02-17T21:54:10.989Z,8.57
2023-02-17T21:57:12.268Z,8.43
2023-02-17T22:00:15.026Z,8.54
2023-02-17T22:03:17.449Z,8.47
2023-02-17T22:06:21.362Z,8.51
2023-02-17T22:09:24.651Z,8.45
2023-02-17T22:12:26.312Z,8.67
2023-02-17T22:18:47.704Z,8.62
2023-02-17T22:21:50.091Z,8.69
2023-02-17T22:24:52.230Z,8.54
2023-02-17T22:27:53.487Z,8.59
2023-02-17T22:30:54.799Z,8.54
2023-02-17T22:33:57.187Z,8.41
2023-02-17T22:36:58.589Z,8.43
2023-02-17T22:40:00.542Z,8.37
2023-02-17T22:43:01.929Z,8.38
2023-02-17T22:46:04.121Z,8.47
2023-02-17T22:49:05.637Z,8.33
2023-02-17T22:52:07.256Z,8.37
2023-02-17T22:55:10.155Z,8.23
2023-02-17T22:58:11.435Z,8.18
2023-02-17T23:01:16.485Z,8.28
2023-02-17T23:04:17.916Z,8.09
2023-02-17T23:07:20.389Z,8.09
2023-02-17T23:10:23.507Z,7.99
2023-02-17T23:13:25.135Z,8.06
2023-02-17T23:19:46.968Z,7.82
2023-02-17T23:22:48.717Z,7.87
2023-02-17T23:25:54.363Z,7.71
2023-02-17T23:28:55.840Z,7.76
2023-02-17T23:31:58.744Z,7.84
2023-02-17T23:35:00.118Z,7.78
2023-02-17T23:38:01.382Z,7.77
2023-02-17T23:41:03.845Z,7.72
2023-02-17T23:44:07.519Z,7.81
2023-02-17T23:47:08.780Z,7.84
2023-02-17T23:50:10.764Z,7.73
2023-02-17T23:53:12.031Z,7.80
2023-02-17T23:56:29.336Z,8.04
2023-02-17T23:59:30.605Z,7.73
